Time;durP1;ratioP1;P1;durP2;ratioP2;P2;SDS_P1;SDS_P2;PMS_P1;PMS_P2;Temp;Humidity;BMP_temperature;BMP_pressure;BME280_temperature;BME280_humidity;BME280_pressure;Samples;Min_cycle;Max_cycle;Signal;HPM_P1;HPM_P2
2021/01/14 00:00:37;;;;;;;22.23;13.13;;;1.30;97.10;;;;;;5092549;28;20028;-77
2021/01/14 00:03:11;;;;;;;22.23;12.77;;;1.10;97.40;;;;;;5092407;28;20541;-77
2021/01/14 00:05:38;;;;;;;21.67;11.77;;;1.10;97.90;;;;;;5084945;28;20052;-78
2021/01/14 00:08:07;;;;;;;25.80;12.17;;;1.10;98.00;;;;;;5073205;28;20024;-77
2021/01/14 00:10:36;;;;;;;20.23;10.77;;;1.10;97.90;;;;;;5072089;28;20108;-76
2021/01/14 00:13:02;;;;;;;20.50;10.73;;;1.20;97.70;;;;;;5072060;28;20028;-77
2021/01/14 00:15:27;;;;;;;19.70;11.00;;;1.30;97.40;;;;;;5072035;28;20024;-77
2021/01/14 00:17:53;;;;;;;20.03;10.47;;;1.30;97.40;;;;;;5070461;28;20098;-77
2021/01/14 00:20:20;;;;;;;17.23;9.97;;;1.30;97.40;;;;;;5053009;28;20647;-77
2021/01/14 00:22:47;;;;;;;17.50;10.07;;;1.40;97.30;;;;;;5085503;28;20115;-77
2021/01/14 00:25:14;;;;;;;22.37;9.83;;;1.40;97.10;;;;;;5053175;28;20037;-77
2021/01/14 00:27:40;;;;;;;21.17;11.43;;;1.40;97.10;;;;;;5085406;28;20029;-77
2021/01/14 00:30:15;;;;;;;22.03;11.80;;;1.40;97.10;;;;;;5053115;28;20017;-77
2021/01/14 00:32:40;;;;;;;20.00;10.80;;;1.40;97.30;;;;;;5051649;28;20644;-77
2021/01/14 00:35:08;;;;;;;16.37;10.40;;;1.40;97.30;;;;;;5052850;28;20096;-77
2021/01/14 00:37:55;;;;;;;21.17;9.87;;;1.30;97.30;;;;;;5061030;28;20025;-77
2021/01/14 00:40:23;;;;;;;13.93;8.57;;;1.30;97.30;;;;;;5071494;28;20035;-77
2021/01/14 00:42:55;;;;;;;14.33;8.57;;;1.30;97.30;;;;;;5071610;28;20029;-78
2021/01/14 00:45:21;;;;;;;19.80;9.23;;;1.30;97.30;;;;;;5072886;28;20028;-77
2021/01/14 00:47:47;;;;;;;17.13;9.40;;;1.30;97.40;;;;;;5072733;28;20063;-77
2021/01/14 00:50:12;;;;;;;15.30;9.30;;;1.30;97.30;;;;;;5072779;28;20059;-77
2021/01/14 00:52:39;;;;;;;15.63;9.40;;;1.40;97.30;;;;;;5105312;28;20036;-77
2021/01/14 00:55:05;;;;;;;17.80;9.67;;;1.40;97.30;;;;;;5105274;28;20031;-77
2021/01/14 00:57:36;;;;;;;18.33;9.20;;;1.30;97.20;;;;;;5072619;28;20107;-77
2021/01/14 01:00:08;;;;;;;12.25;7.80;;;1.40;97.10;;;;;;5107444;28;20020;-77
2021/01/14 01:02:34;;;;;;;17.58;10.43;;;1.40;96.80;;;;;;5109603;28;20493;-77
2021/01/14 01:05:00;;;;;;;14.03;8.73;;;1.50;96.70;;;;;;5079602;28;20024;-78
2021/01/14 01:07:26;;;;;;;17.53;9.33;;;1.50;96.40;;;;;;5117484;28;20028;-78
2021/01/14 01:09:51;;;;;;;15.70;8.70;;;1.60;96.30;;;;;;5098955;28;20137;-77
2021/01/14 01:12:17;;;;;;;12.83;8.63;;;1.70;96.10;;;;;;5117556;28;20117;-77
2021/01/14 01:14:43;;;;;;;19.80;11.97;;;1.70;96.10;;;;;;5099058;28;20066;-77
2021/01/14 01:17:10;;;;;;;21.87;11.50;;;1.60;96.40;;;;;;5117419;28;20381;-77
2021/01/14 01:19:35;;;;;;;23.03;12.67;;;1.60;96.60;;;;;;5099010;28;20024;-77
2021/01/14 01:22:01;;;;;;;21.30;11.57;;;1.50;96.90;;;;;;5099035;28;20176;-77
2021/01/14 01:24:26;;;;;;;23.97;11.63;;;1.40;97.00;;;;;;5117302;28;20536;-78
2021/01/14 01:26:52;;;;;;;26.63;12.57;;;1.30;97.10;;;;;;5098784;28;20570;-78
2021/01/14 01:29:19;;;;;;;21.23;11.97;;;1.20;97.30;;;;;;5098593;28;20073;-77
2021/01/14 01:31:44;;;;;;;27.13;12.33;;;1.10;97.20;;;;;;5117047;28;20023;-77
2021/01/14 01:34:10;;;;;;;18.57;11.07;;;1.00;97.40;;;;;;5116927;28;20066;-78
2021/01/14 01:36:36;;;;;;;21.27;11.13;;;0.90;97.90;;;;;;5098518;28;20546;-77
2021/01/14 01:39:03;;;;;;;18.40;11.27;;;0.80;98.20;;;;;;5098524;28;20026;-77
2021/01/14 01:41:28;;;;;;;17.70;11.40;;;0.70;98.70;;;;;;5098528;28;20055;-77
2021/01/14 01:43:54;;;;;;;20.77;10.83;;;0.70;99.10;;;;;;5116708;28;20055;-77
2021/01/14 01:46:28;;;;;;;20.00;10.23;;;0.70;99.30;;;;;;5116796;28;20080;-77
2021/01/14 01:48:56;;;;;;;17.80;9.67;;;0.80;99.20;;;;;;5098265;28;20461;-77
2021/01/14 01:51:24;;;;;;;17.07;9.30;;;0.80;99.00;;;;;;5098397;28;20020;-77
2021/01/14 01:53:50;;;;;;;16.47;9.70;;;0.80;99.00;;;;;;5116653;28;20099;-77
2021/01/14 01:56:19;;;;;;;18.50;9.67;;;0.90;99.00;;;;;;5098234;28;20019;-77
2021/01/14 01:58:46;;;;;;;17.20;9.67;;;0.90;98.80;;;;;;5116378;28;20547;-77
2021/01/14 02:01:12;;;;;;;17.57;9.70;;;0.80;98.60;;;;;;5098136;28;20022;-77
2021/01/14 02:03:38;;;;;;;16.50;9.93;;;0.70;99.00;;;;;;5116487;28;20027;-77
2021/01/14 02:06:03;;;;;;;16.27;10.47;;;0.60;99.50;;;;;;5116395;28;20055;-77
2021/01/14 02:08:42;;;;;;;16.37;9.77;;;0.60;99.60;;;;;;5116234;28;20032;-77
2021/01/14 02:11:26;;;;;;;19.63;9.80;;;0.60;99.60;;;;;;5115806;28;20080;-77
2021/01/14 02:14:07;;;;;;;17.33;10.53;;;0.50;99.70;;;;;;5105321;27;20037;-77
2021/01/14 02:16:37;;;;;;;16.20;9.83;;;0.40;99.90;;;;;;5136796;27;20492;-77
2021/01/14 02:19:06;;;;;;;16.43;9.60;;;0.40;99.90;;;;;;5105570;28;20177;-77
2021/01/14 02:21:32;;;;;;;15.80;9.13;;;0.40;99.90;;;;;;5116015;28;20038;-77
2021/01/14 02:24:25;;;;;;;17.13;9.77;;;0.40;99.90;;;;;;5097786;28;20182;-77
2021/01/14 02:26:52;;;;;;;16.70;8.63;;;0.50;99.90;;;;;;5116156;28;20182;-77
2021/01/14 02:29:18;;;;;;;16.63;8.10;;;0.60;99.90;;;;;;5115870;28;20236;-77
2021/01/14 02:31:44;;;;;;;16.20;8.47;;;0.70;99.70;;;;;;5131765;27;20445;-77
2021/01/14 02:34:09;;;;;;;12.93;8.33;;;0.70;99.50;;;;;;5097606;28;20074;-77
2021/01/14 02:36:35;;;;;;;15.90;8.90;;;0.70;99.40;;;;;;5115750;28;20020;-77
2021/01/14 02:39:01;;;;;;;13.13;8.07;;;0.70;99.40;;;;;;5097551;28;20064;-77
2021/01/14 02:41:26;;;;;;;13.73;8.37;;;0.80;99.20;;;;;;5115655;28;20586;-77
2021/01/14 02:43:52;;;;;;;15.80;8.83;;;0.80;99.10;;;;;;5097423;28;20028;-77
2021/01/14 02:46:20;;;;;;;14.73;8.43;;;0.80;99.00;;;;;;5097386;28;20080;-77
2021/01/14 02:49:04;;;;;;;16.37;8.07;;;0.80;98.90;;;;;;5115594;28;20053;-77
2021/01/14 02:51:34;;;;;;;13.30;8.13;;;0.90;98.70;;;;;;5097202;28;20701;-77
2021/01/14 02:54:01;;;;;;;12.03;8.63;;;0.90;98.50;;;;;;5115404;28;20020;-77
2021/01/14 02:56:28;;;;;;;13.80;7.00;;;1.00;98.40;;;;;;5097206;28;20028;-77
2021/01/14 02:58:56;;;;;;;9.20;6.93;;;1.00;98.20;;;;;;5115223;28;20480;-77
2021/01/14 03:01:22;;;;;;;11.07;7.40;;;1.10;98.20;;;;;;5097240;28;20474;-77
2021/01/14 03:03:49;;;;;;;12.80;7.17;;;1.10;97.90;;;;;;5097077;28;20023;-77
2021/01/14 03:06:14;;;;;;;16.20;8.23;;;1.20;97.70;;;;;;5115066;28;20504;-77
2021/01/14 03:08:40;;;;;;;14.90;8.10;;;1.20;97.60;;;;;;5096818;28;20114;-77
2021/01/14 03:11:05;;;;;;;14.97;8.20;;;1.30;97.50;;;;;;5096930;28;20102;-77
2021/01/14 03:13:31;;;;;;;14.40;8.67;;;1.40;97.20;;;;;;5096759;28;20038;-78
2021/01/14 03:15:57;;;;;;;15.13;7.90;;;1.20;97.20;;;;;;5096685;28;20625;-77
2021/01/14 03:18:22;;;;;;;13.67;8.43;;;1.10;97.50;;;;;;5089765;28;20543;-77
2021/01/14 03:20:49;;;;;;;16.23;8.23;;;0.90;97.80;;;;;;5094555;28;20040;-77
2021/01/14 03:23:15;;;;;;;14.17;8.30;;;0.70;98.50;;;;;;5093627;28;20028;-77
2021/01/14 03:25:41;;;;;;;16.50;8.47;;;0.60;98.80;;;;;;5094577;28;20024;-77
2021/01/14 03:28:06;;;;;;;18.07;9.07;;;0.60;99.10;;;;;;5076142;28;20024;-77
2021/01/14 03:30:32;;;;;;;15.93;9.83;;;0.70;99.10;;;;;;5110191;28;20374;-77
2021/01/14 03:32:58;;;;;;;13.87;8.63;;;0.70;98.90;;;;;;5076102;28;20081;-77
2021/01/14 03:35:24;;;;;;;14.20;7.80;;;0.80;99.20;;;;;;5110062;28;20031;-76
2021/01/14 03:37:50;;;;;;;13.83;8.00;;;0.80;98.80;;;;;;5087749;28;20107;-78
2021/01/14 03:40:17;;;;;;;12.80;8.00;;;0.80;98.70;;;;;;5096354;28;20168;-77
2021/01/14 03:42:43;;;;;;;14.43;8.30;;;0.90;98.70;;;;;;5114449;28;20474;-77
2021/01/14 03:45:08;;;;;;;15.27;7.97;;;0.80;98.10;;;;;;5096246;28;20047;-77
2021/01/14 03:47:34;;;;;;;14.70;8.57;;;0.80;98.20;;;;;;5114250;28;20427;-77
2021/01/14 03:50:00;;;;;;;11.67;7.73;;;0.70;98.70;;;;;;5095956;28;20491;-77
2021/01/14 03:52:26;;;;;;;13.43;8.10;;;0.50;99.00;;;;;;5114324;28;20023;-77
2021/01/14 03:54:52;;;;;;;13.57;8.47;;;0.40;99.60;;;;;;5096057;28;20528;-77
2021/01/14 03:57:18;;;;;;;21.70;8.97;;;0.40;99.70;;;;;;5095832;28;20111;-77
2021/01/14 03:59:44;;;;;;;12.40;8.17;;;0.50;99.80;;;;;;5095895;28;20055;-77
2021/01/14 04:02:11;;;;;;;14.60;7.50;;;0.40;99.50;;;;;;5130043;27;20027;-77
2021/01/14 04:04:41;;;;;;;12.67;7.77;;;0.50;99.50;;;;;;5095813;28;20397;-78
2021/01/14 04:07:16;;;;;;;12.77;8.03;;;0.60;99.40;;;;;;5114005;28;20112;-77
2021/01/14 04:09:41;;;;;;;10.73;7.57;;;0.60;99.30;;;;;;5113793;28;20388;-77
2021/01/14 04:12:08;;;;;;;12.20;8.50;;;0.70;99.30;;;;;;5113894;28;20390;-77
2021/01/14 04:14:34;;;;;;;14.47;8.77;;;0.70;99.30;;;;;;5095754;28;20023;-77
2021/01/14 04:17:00;;;;;;;12.70;8.60;;;0.70;99.60;;;;;;5095647;28;20019;-77
2021/01/14 04:19:26;;;;;;;11.33;7.80;;;0.70;99.40;;;;;;5079778;28;20031;-77
2021/01/14 04:21:51;;;;;;;13.13;7.93;;;0.70;99.20;;;;;;5134324;27;20067;-77
2021/01/14 04:24:17;;;;;;;14.20;8.37;;;0.70;99.00;;;;;;5115977;27;20042;-77
2021/01/14 04:26:43;;;;;;;15.97;8.60;;;0.70;98.90;;;;;;5150270;27;20027;-77
2021/01/14 04:29:09;;;;;;;15.43;9.67;;;0.60;99.20;;;;;;5150147;27;20395;-77
2021/01/14 04:31:35;;;;;;;14.23;8.53;;;0.50;99.60;;;;;;5134194;27;20393;-77
2021/01/14 04:34:02;;;;;;;12.97;7.93;;;0.50;99.70;;;;;;5134035;27;20055;-77
2021/01/14 04:36:28;;;;;;;13.57;7.30;;;0.50;99.80;;;;;;5133562;27;20023;-77
2021/01/14 04:38:54;;;;;;;12.47;7.93;;;0.60;99.80;;;;;;5095155;28;20023;-77
2021/01/14 04:41:21;;;;;;;14.60;8.10;;;0.60;99.60;;;;;;5113793;28;20108;-77
2021/01/14 04:43:48;;;;;;;12.90;7.80;;;0.70;99.60;;;;;;5095345;28;20024;-77
2021/01/14 04:46:15;;;;;;;15.33;7.83;;;0.70;99.30;;;;;;5095440;28;20019;-77
2021/01/14 04:48:45;;;;;;;15.40;8.57;;;0.80;99.20;;;;;;5094999;28;20024;-77
2021/01/14 04:51:15;;;;;;;11.27;7.77;;;0.80;99.10;;;;;;5095302;28;20024;-77
2021/01/14 04:53:43;;;;;;;11.73;8.17;;;0.80;99.00;;;;;;5129192;27;20019;-77
2021/01/14 04:56:10;;;;;;;16.30;8.60;;;0.80;99.00;;;;;;5095214;28;20023;-77
2021/01/14 04:58:38;;;;;;;12.60;8.17;;;0.80;99.10;;;;;;5095150;28;20078;-77
2021/01/14 05:01:26;;;;;;;20.97;8.53;;;0.70;99.00;;;;;;5095227;28;20032;-77
2021/01/14 05:03:54;;;;;;;14.50;8.03;;;0.70;99.30;;;;;;5112852;28;20036;-77
2021/01/14 05:06:24;;;;;;;15.17;8.13;;;0.80;99.60;;;;;;5095032;28;20082;-77
2021/01/14 05:09:01;;;;;;;13.53;7.77;;;0.80;99.10;;;;;;5113136;28;20028;-77
2021/01/14 05:11:28;;;;;;;14.23;8.60;;;0.80;99.10;;;;;;5095241;28;20019;-77
2021/01/14 05:13:54;;;;;;;11.50;7.63;;;0.70;99.10;;;;;;5129224;28;20026;-77
2021/01/14 05:16:19;;;;;;;18.40;8.77;;;0.70;99.40;;;;;;5094893;28;20115;-77
2021/01/14 05:18:45;;;;;;;14.23;9.03;;;0.60;99.50;;;;;;5084725;28;20052;-77
2021/01/14 05:21:11;;;;;;;13.80;8.30;;;0.60;99.90;;;;;;5108434;28;20075;-77
2021/01/14 05:23:38;;;;;;;12.80;7.93;;;0.50;99.90;;;;;;5074646;28;20582;-77
2021/01/14 05:26:03;;;;;;;15.93;7.77;;;0.60;99.90;;;;;;5074554;28;20035;-77
2021/01/14 05:28:30;;;;;;;14.13;8.37;;;0.60;99.90;;;;;;5074452;28;20032;-78
2021/01/14 05:31:16;;;;;;;19.23;9.33;;;0.60;99.90;;;;;;5092562;28;20501;-77
2021/01/14 05:33:42;;;;;;;14.83;8.33;;;0.60;99.70;;;;;;5074561;28;20426;-77
2021/01/14 05:36:08;;;;;;;11.90;7.77;;;0.60;99.50;;;;;;5092592;28;20024;-77
2021/01/14 05:38:34;;;;;;;14.67;8.70;;;0.60;99.60;;;;;;5108167;28;20089;-78
2021/01/14 05:41:18;;;;;;;15.67;8.00;;;0.70;99.80;;;;;;5108402;28;20481;-77
2021/01/14 05:43:56;;;;;;;14.03;8.27;;;0.70;99.70;;;;;;5074396;28;20047;-77
2021/01/14 05:46:32;;;;;;;15.07;8.50;;;0.70;99.50;;;;;;5095077;28;20069;-77
2021/01/14 05:49:01;;;;;;;14.90;8.40;;;0.70;99.50;;;;;;5108205;28;20031;-77
2021/01/14 05:51:27;;;;;;;18.50;9.20;;;0.60;99.70;;;;;;5132647;27;20026;-77
2021/01/14 05:54:14;;;;;;;11.93;7.57;;;0.60;99.70;;;;;;5098503;28;20020;-78
2021/01/14 05:56:50;;;;;;;15.73;8.73;;;0.60;99.80;;;;;;5098531;28;20045;-77
2021/01/14 05:59:18;;;;;;;10.53;7.97;;;0.60;99.90;;;;;;5116494;28;20102;-77
2021/01/14 06:01:53;;;;;;;18.00;8.33;;;0.60;99.90;;;;;;5116436;28;20028;-77
2021/01/14 06:04:24;;;;;;;13.47;8.40;;;0.60;99.90;;;;;;5098200;28;20114;-77
2021/01/14 06:06:52;;;;;;;16.23;9.53;;;0.60;99.90;;;;;;5098225;28;20097;-77
2021/01/14 06:09:19;;;;;;;16.07;8.47;;;0.60;99.80;;;;;;5097848;28;20019;-77
2021/01/14 06:11:46;;;;;;;13.33;8.40;;;0.60;99.90;;;;;;5098306;28;20042;-77
2021/01/14 06:14:24;;;;;;;13.43;8.77;;;0.60;99.90;;;;;;5132211;27;20024;-77
2021/01/14 06:16:50;;;;;;;13.53;8.60;;;0.60;99.90;;;;;;5097985;28;20032;-77
2021/01/14 06:19:16;;;;;;;11.50;7.83;;;0.70;99.90;;;;;;5083515;28;20035;-77
2021/01/14 06:21:47;;;;;;;16.30;8.80;;;0.70;99.80;;;;;;5095859;28;20035;-77
2021/01/14 06:24:27;;;;;;;13.37;8.00;;;0.70;99.70;;;;;;5111663;28;20028;-77
2021/01/14 06:26:54;;;;;;;14.23;8.83;;;0.70;99.80;;;;;;5077816;28;20413;-77
2021/01/14 06:29:28;;;;;;;14.00;8.80;;;0.70;99.80;;;;;;5087727;27;20148;-77
2021/01/14 06:32:18;;;;;;;14.03;8.47;;;0.70;99.90;;;;;;5118027;27;20020;-80
2021/01/14 06:34:52;;;;;;;12.80;8.47;;;0.70;99.70;;;;;;5120197;27;20500;-81
2021/01/14 06:37:25;;;;;;;14.97;8.73;;;0.70;99.70;;;;;;5097342;28;20016;-80
2021/01/14 06:39:56;;;;;;;18.97;9.07;;;0.80;99.80;;;;;;5097147;28;20470;-80
2021/01/14 06:42:30;;;;;;;14.55;9.00;;;0.80;99.80;;;;;;5097288;28;20028;-80
2021/01/14 06:45:07;;;;;;;18.30;8.97;;;0.80;99.60;;;;;;5115783;28;20030;-80
2021/01/14 06:47:41;;;;;;;14.60;8.50;;;0.80;99.60;;;;;;5115972;28;20019;-81
2021/01/14 06:50:16;;;;;;;13.43;8.40;;;0.80;99.70;;;;;;5097636;28;20363;-80
2021/01/14 06:52:46;;;;;;;14.37;7.97;;;0.80;99.70;;;;;;5105299;28;20028;-80
2021/01/14 06:55:14;;;;;;;15.03;9.30;;;0.80;99.60;;;;;;5097350;28;20020;-80
2021/01/14 06:57:56;;;;;;;26.43;12.57;;;0.80;99.70;;;;;;5096416;28;20473;-80
2021/01/14 07:00:22;;;;;;;28.25;12.57;;;0.80;99.70;;;;;;5097333;28;20019;-80
2021/01/14 07:03:07;;;;;;;19.70;10.43;;;0.80;99.90;;;;;;5115373;28;20076;-80
2021/01/14 07:05:40;;;;;;;18.67;9.83;;;0.80;99.60;;;;;;5098145;28;20078;-80
2021/01/14 07:08:38;;;;;;;22.00;11.17;;;0.90;99.60;;;;;;5115414;28;20027;-80
2021/01/14 07:11:05;;;;;;;25.97;11.23;;;0.90;99.60;;;;;;5115659;28;20048;-80
2021/01/14 07:13:55;;;;;;;30.30;14.97;;;0.90;99.60;;;;;;5115623;28;20020;-80
2021/01/14 07:16:25;;;;;;;23.27;13.53;;;0.90;99.80;;;;;;5114974;28;20118;-80
2021/01/14 07:18:52;;;;;;;25.60;13.13;;;0.80;99.70;;;;;;5115658;28;20487;-80
2021/01/14 07:21:27;;;;;;;24.90;13.07;;;0.80;99.70;;;;;;5097247;28;20028;-80
2021/01/14 07:24:02;;;;;;;10.67;6.80;;;0.80;99.70;;;;;;5097092;28;20762;-79
2021/01/14 07:26:30;;;;;;;28.40;13.73;;;1.30;99.90;;;;;;5115242;28;20027;-78
2021/01/14 07:28:55;;;;;;;29.63;14.57;;;1.80;99.90;;;;;;5096625;28;20027;-79
2021/01/14 07:31:27;;;;;;;27.83;16.70;;;1.60;98.90;;;;;;5096770;28;20030;-79
2021/01/14 07:33:54;;;;;;;33.80;15.80;;;1.40;98.90;;;;;;5096429;28;20381;-79
2021/01/14 07:36:22;;;;;;;36.63;17.07;;;1.00;98.90;;;;;;5114802;28;20272;-78
2021/01/14 07:38:50;;;;;;;25.37;13.97;;;0.90;99.80;;;;;;5114781;28;20028;-78
2021/01/14 07:41:16;;;;;;;16.83;10.33;;;0.80;99.90;;;;;;5114650;28;20477;-78
2021/01/14 07:43:45;;;;;;;17.63;10.13;;;0.90;99.90;;;;;;5114949;28;20034;-78
2021/01/14 07:46:20;;;;;;;17.80;9.20;;;0.90;99.90;;;;;;5096577;28;20080;-78
2021/01/14 07:48:46;;;;;;;19.00;9.53;;;0.90;99.90;;;;;;5095853;28;20533;-78
2021/01/14 07:51:13;;;;;;;15.23;8.77;;;0.90;99.90;;;;;;5095967;28;20050;-78
2021/01/14 07:53:39;;;;;;;16.90;9.27;;;1.00;99.90;;;;;;5114478;28;20096;-78
2021/01/14 07:56:24;;;;;;;22.57;9.83;;;1.00;99.90;;;;;;5114728;28;20469;-79
2021/01/14 07:58:55;;;;;;;16.27;9.50;;;1.00;99.90;;;;;;5092715;27;20016;-79
2021/01/14 08:01:21;;;;;;;13.90;8.87;;;1.10;99.90;;;;;;5116134;27;20027;-77
2021/01/14 08:03:47;;;;;;;15.67;9.70;;;1.10;99.90;;;;;;5095402;28;20114;-77
2021/01/14 08:06:18;;;;;;;17.40;9.47;;;1.20;99.90;;;;;;5113426;28;20143;-77
2021/01/14 08:09:04;;;;;;;18.42;9.23;;;1.20;99.90;;;;;;5093988;28;20481;-77
2021/01/14 08:11:57;;;;;;;14.87;8.70;;;1.30;99.90;;;;;;5113968;28;20023;-77
2021/01/14 08:14:38;;;;;;;18.52;11.02;;;1.30;99.80;;;;;;5116677;27;20032;-77
2021/01/14 08:17:21;;;;;;;18.67;10.10;;;1.30;99.90;;;;;;5095548;28;20027;-77
2021/01/14 08:19:46;;;;;;;17.60;9.23;;;1.30;99.50;;;;;;5095405;28;20478;-77
2021/01/14 08:22:13;;;;;;;15.60;8.50;;;1.40;99.70;;;;;;5114119;28;20080;-77
2021/01/14 08:24:41;;;;;;;17.27;9.23;;;1.40;99.50;;;;;;5095273;28;20136;-77
2021/01/14 08:27:34;;;;;;;14.83;8.57;;;1.50;99.50;;;;;;5113448;28;20011;-77
2021/01/14 08:30:00;;;;;;;15.07;8.47;;;1.60;99.90;;;;;;5083377;28;20036;-77
2021/01/14 08:32:31;;;;;;;14.67;8.80;;;1.60;99.70;;;;;;5095260;28;20038;-77
2021/01/14 08:35:02;;;;;;;15.10;9.48;;;1.70;99.70;;;;;;5113460;28;20027;-77
2021/01/14 08:37:29;;;;;;;18.30;10.40;;;1.70;99.20;;;;;;5094865;28;20057;-77
2021/01/14 08:39:58;;;;;;;17.67;10.50;;;1.80;99.00;;;;;;5113457;28;20493;-77
2021/01/14 08:42:36;;;;;;;17.37;9.03;;;1.80;98.80;;;;;;5113314;28;20361;-77
2021/01/14 08:45:11;;;;;;;16.30;9.47;;;1.90;98.70;;;;;;5094959;28;20046;-77
2021/01/14 08:47:53;;;;;;;17.77;9.03;;;1.90;98.90;;;;;;5094809;28;20110;-78
2021/01/14 08:50:19;;;;;;;;;;;2.00;98.90;;;;;;5095506;28;20059;-77
2021/01/14 08:52:45;;;;;;;17.83;10.00;;;2.10;98.80;;;;;;5113123;28;20399;-77
2021/01/14 08:55:14;;;;;;;19.20;9.73;;;2.10;98.50;;;;;;5094902;28;20027;-77
2021/01/14 08:57:53;;;;;;;19.33;10.13;;;2.20;98.60;;;;;;5094426;28;20063;-77
2021/01/14 09:00:19;;;;;;;24.57;11.13;;;2.20;98.90;;;;;;5090867;28;20052;-77
2021/01/14 09:02:45;;;;;;;15.90;9.90;;;2.20;98.30;;;;;;5093673;28;20047;-77
2021/01/14 09:05:12;;;;;;;24.40;12.00;;;2.30;98.20;;;;;;5111708;28;20050;-77
2021/01/14 09:07:37;;;;;;;22.73;11.83;;;2.30;98.40;;;;;;5111690;28;20098;-78
2021/01/14 09:10:04;;;;;;;28.40;14.00;;;2.30;98.60;;;;;;5089219;28;20565;-77
2021/01/14 09:12:29;;;;;;;33.53;15.83;;;2.30;98.90;;;;;;5111158;28;20089;-78
2021/01/14 09:14:55;;;;;;;28.43;12.50;;;2.30;99.10;;;;;;5094445;28;20031;-80
2021/01/14 09:17:21;;;;;;;25.17;12.03;;;2.40;98.60;;;;;;5094104;28;20478;-80
2021/01/14 09:19:54;;;;;;;27.23;15.03;;;2.60;98.20;;;;;;5093635;28;20462;-80
2021/01/14 09:22:26;;;;;;;24.90;13.73;;;2.80;98.30;;;;;;5097490;28;20542;-80
2021/01/14 09:24:52;;;;;;;25.30;12.87;;;2.90;98.10;;;;;;5091023;28;20055;-80
2021/01/14 09:27:18;;;;;;;24.33;13.30;;;2.90;97.40;;;;;;5098355;28;20028;-80
2021/01/14 09:29:43;;;;;;;27.67;12.80;;;3.00;97.40;;;;;;5098507;28;20030;-80
2021/01/14 09:32:13;;;;;;;30.57;13.97;;;3.00;97.30;;;;;;5116581;28;20634;-80
2021/01/14 09:34:39;;;;;;;28.20;13.97;;;3.10;97.20;;;;;;5098471;28;20038;-80
2021/01/14 09:37:20;;;;;;;24.47;12.70;;;3.20;97.20;;;;;;5097990;28;20028;-80
2021/01/14 09:39:46;;;;;;;24.77;14.03;;;3.20;96.70;;;;;;5116701;28;20085;-80
2021/01/14 09:42:17;;;;;;;27.10;14.60;;;3.20;96.90;;;;;;5116686;28;20032;-80
2021/01/14 09:44:45;;;;;;;25.67;14.02;;;3.20;97.40;;;;;;5116709;28;20047;-80
2021/01/14 09:47:12;;;;;;;27.13;14.17;;;3.20;97.60;;;;;;5103856;27;20118;-80
2021/01/14 09:49:39;;;;;;;28.63;15.13;;;3.20;97.40;;;;;;5116070;28;20035;-80
2021/01/14 09:52:04;;;;;;;30.53;15.43;;;3.30;97.20;;;;;;5116463;28;20054;-80
2021/01/14 09:54:31;;;;;;;32.20;14.20;;;3.30;97.30;;;;;;5098047;28;20048;-80
2021/01/14 09:56:57;;;;;;;35.03;15.77;;;3.30;97.10;;;;;;5097995;28;20102;-80
2021/01/14 09:59:25;;;;;;;29.07;15.60;;;3.40;97.00;;;;;;5116029;28;20020;-80
2021/01/14 10:01:57;;;;;;;27.17;14.87;;;3.40;96.80;;;;;;5097205;28;20051;-79
2021/01/14 10:04:27;;;;;;;35.63;15.73;;;3.40;96.50;;;;;;5116157;28;20046;-77
2021/01/14 10:07:07;;;;;;;34.93;15.07;;;3.50;96.80;;;;;;5097603;28;20644;-77
2021/01/14 10:09:35;;;;;;;32.27;14.73;;;3.50;97.20;;;;;;5108051;28;20028;-77
2021/01/14 10:12:03;;;;;;;27.73;14.80;;;3.60;96.80;;;;;;5097338;28;20047;-77
2021/01/14 10:14:28;;;;;;;28.37;15.47;;;3.60;96.60;;;;;;5097244;28;20133;-77
2021/01/14 10:16:54;;;;;;;27.73;14.80;;;3.60;96.30;;;;;;5115949;28;20482;-78
2021/01/14 10:19:20;;;;;;;28.93;14.57;;;3.70;96.40;;;;;;5115830;28;20035;-78
2021/01/14 10:21:47;;;;;;;30.13;15.13;;;3.70;96.50;;;;;;5097586;28;20023;-77
2021/01/14 10:24:29;;;;;;;32.57;15.90;;;3.70;97.00;;;;;;5115907;28;20392;-78
2021/01/14 10:27:13;;;;;;;33.03;15.35;;;3.80;97.10;;;;;;5115750;28;20038;-80
2021/01/14 10:29:40;;;;;;;31.37;14.93;;;3.80;96.30;;;;;;5115523;28;20035;-78
2021/01/14 10:32:13;;;;;;;32.00;14.67;;;3.80;96.40;;;;;;5097169;28;20028;-78
2021/01/14 10:34:46;;;;;;;37.90;16.17;;;3.80;97.20;;;;;;5097390;28;20055;-78
2021/01/14 10:37:21;;;;;;;31.63;16.90;;;3.90;96.90;;;;;;5118788;27;20019;-77
2021/01/14 10:39:47;;;;;;;27.60;15.67;;;3.90;97.30;;;;;;5115468;28;20035;-77
2021/01/14 10:42:36;;;;;;;31.10;15.57;;;4.00;97.30;;;;;;5115454;28;20031;-77
2021/01/14 10:45:07;;;;;;;35.80;15.47;;;4.00;96.80;;;;;;5085159;28;20404;-77
2021/01/14 10:47:35;;;;;;;34.23;16.60;;;4.00;97.00;;;;;;5115534;28;20023;-77
2021/01/14 10:50:17;;;;;;;35.00;16.13;;;4.10;97.00;;;;;;5114779;28;20500;-77
2021/01/14 10:52:59;;;;;;;34.83;15.67;;;4.20;96.70;;;;;;5093428;28;20031;-80
2021/01/14 10:55:27;;;;;;;39.20;15.65;;;4.30;96.60;;;;;;5115759;28;20035;-77
2021/01/14 10:57:57;;;;;;;29.73;16.07;;;4.40;95.80;;;;;;5114939;28;21122;-77
2021/01/14 11:00:25;;;;;;;34.43;17.53;;;4.40;95.30;;;;;;5096161;28;20382;-80
2021/01/14 11:03:15;;;;;;;31.67;17.33;;;4.40;95.90;;;;;;5114694;28;20047;-80
2021/01/14 11:05:48;;;;;;;33.00;17.53;;;4.50;95.90;;;;;;5096149;28;20050;-78
2021/01/14 11:08:22;;;;;;;27.08;15.45;;;4.50;95.80;;;;;;5113949;28;20106;-80
2021/01/14 11:11:00;;;;;;;27.73;15.80;;;4.60;95.60;;;;;;5096304;28;20020;-77
2021/01/14 11:13:36;;;;;;;31.23;16.73;;;4.60;95.30;;;;;;5096165;28;20032;-80
2021/01/14 11:16:02;;;;;;;37.63;17.98;;;4.60;95.40;;;;;;5096527;28;20023;-80
2021/01/14 11:18:28;;;;;;;29.87;16.73;;;4.70;95.60;;;;;;5114536;28;20027;-79
2021/01/14 11:20:54;;;;;;;39.70;17.67;;;4.80;95.10;;;;;;5096272;28;20055;-80
2021/01/14 11:23:19;;;;;;;40.23;17.07;;;4.80;95.10;;;;;;5095899;28;20370;-80
2021/01/14 11:25:45;;;;;;;33.47;18.15;;;4.80;95.20;;;;;;5096151;28;20032;-80
2021/01/14 11:28:11;;;;;;;30.73;16.83;;;4.90;95.40;;;;;;5114077;28;20034;-80
2021/01/14 11:30:36;;;;;;;32.67;16.75;;;5.10;95.50;;;;;;5114334;28;20031;-80
2021/01/14 11:33:02;;;;;;;33.90;17.30;;;5.10;95.10;;;;;;5096101;28;20019;-81
2021/01/14 11:35:28;;;;;;;33.17;17.90;;;5.20;94.80;;;;;;5103156;28;20035;-78
2021/01/14 11:37:53;;;;;;;30.05;17.20;;;5.10;94.70;;;;;;5088846;28;20431;-77
2021/01/14 11:40:19;;;;;;;31.30;17.30;;;5.20;95.00;;;;;;5095631;28;20106;-78
2021/01/14 11:42:45;;;;;;;34.70;17.27;;;5.20;94.50;;;;;;5128684;27;20034;-77
2021/01/14 11:45:11;;;;;;;37.97;19.33;;;5.30;94.70;;;;;;5095170;28;20024;-77
2021/01/14 11:47:37;;;;;;;36.10;18.42;;;5.30;94.40;;;;;;5113522;28;20027;-80
2021/01/14 11:50:03;;;;;;;35.10;18.00;;;5.30;95.00;;;;;;5094630;28;20038;-80
2021/01/14 11:52:28;;;;;;;32.97;16.75;;;5.40;94.40;;;;;;5112851;28;20020;-80
2021/01/14 11:54:54;;;;;;;30.40;17.42;;;5.40;94.00;;;;;;5112862;28;20023;-80
2021/01/14 11:57:20;;;;;;;30.42;17.20;;;5.50;94.20;;;;;;5094515;28;20028;-80
2021/01/14 11:59:46;;;;;;;30.58;16.77;;;5.50;93.90;;;;;;5094553;28;20028;-80
2021/01/14 12:02:12;;;;;;;29.33;15.57;;;5.60;94.50;;;;;;5113073;28;20019;-78
2021/01/14 12:04:38;;;;;;;30.65;16.83;;;5.60;93.90;;;;;;5094681;28;20087;-77
2021/01/14 12:07:03;;;;;;;32.53;16.42;;;5.70;93.40;;;;;;5091271;28;20139;-77
2021/01/14 12:09:30;;;;;;;30.92;17.00;;;5.70;93.30;;;;;;5091823;28;20076;-78
2021/01/14 12:11:56;;;;;;;31.20;18.08;;;5.70;93.80;;;;;;5093592;28;20066;-77
2021/01/14 12:14:22;;;;;;;36.42;16.92;;;5.80;93.80;;;;;;5093117;28;20481;-78
2021/01/14 12:16:47;;;;;;;39.03;18.23;;;5.80;93.30;;;;;;5092405;28;20390;-79
2021/01/14 12:19:13;;;;;;;32.60;17.88;;;5.90;93.70;;;;;;5091162;28;20106;-81
2021/01/14 12:21:39;;;;;;;37.05;18.08;;;6.00;93.70;;;;;;5091658;28;20023;-79
2021/01/14 12:24:05;;;;;;;36.50;19.98;;;6.00;93.80;;;;;;5091778;28;20477;-79
2021/01/14 12:26:30;;;;;;;38.20;20.40;;;6.10;93.90;;;;;;5091651;28;20028;-79
2021/01/14 12:28:56;;;;;;;45.33;21.63;;;6.10;94.10;;;;;;5091560;28;20031;-79
2021/01/14 12:31:21;;;;;;;42.63;23.58;;;6.20;94.60;;;;;;5091129;28;20069;-79
2021/01/14 12:33:47;;;;;;;47.30;23.20;;;6.20;94.70;;;;;;5085324;28;20024;-78
2021/01/14 12:36:13;;;;;;;49.13;25.58;;;6.20;94.80;;;;;;5091527;28;20466;-79
2021/01/14 12:38:41;;;;;;;46.47;25.58;;;6.20;95.40;;;;;;5092468;28;20039;-79
2021/01/14 12:41:07;;;;;;;50.58;27.90;;;6.20;96.30;;;;;;5092985;28;20055;-79
2021/01/14 12:43:32;;;;;;;42.22;25.30;;;6.20;96.70;;;;;;5091322;28;20508;-79
2021/01/14 12:45:58;;;;;;;52.65;27.65;;;6.20;96.80;;;;;;5091449;28;20024;-79
2021/01/14 12:48:23;;;;;;;48.08;26.75;;;6.20;96.70;;;;;;5092589;28;20032;-77
2021/01/14 12:50:49;;;;;;;48.35;27.02;;;6.20;97.20;;;;;;5091315;28;20020;-77
2021/01/14 12:53:15;;;;;;;52.65;28.92;;;6.20;96.90;;;;;;5091293;28;20028;-77